createdAt,value
2023-04-14T00:00:58.757Z,17.83
2023-04-14T00:03:26.318Z,17.35
2023-04-14T00:05:53.945Z,13.73
2023-04-14T00:08:21.223Z,16.85
2023-04-14T00:10:48.819Z,19.33
2023-04-14T00:13:16.298Z,17.20
2023-04-14T00:15:43.867Z,18.35
2023-04-14T00:18:11.221Z,17.45
2023-04-14T00:20:38.857Z,15.98
2023-04-14T00:23:06.253Z,18.35
2023-04-14T00:25:33.889Z,18.08
2023-04-14T00:28:01.357Z,18.98
2023-04-14T00:30:29.183Z,15.50
2023-04-14T00:32:56.754Z,18.27
2023-04-14T00:35:24.670Z,20.02
2023-04-14T00:37:52.045Z,17.85
2023-04-14T00:40:19.743Z,17.88
2023-04-14T00:42:47.742Z,19.05
2023-04-14T00:45:15.548Z,17.52
2023-04-14T00:47:48.013Z,17.90
2023-04-14T00:50:18.029Z,18.27
2023-04-14T00:52:49.250Z,19.17
2023-04-14T00:55:20.022Z,19.50
2023-04-14T00:57:48.103Z,19.10
2023-04-14T01:00:16.297Z,19.48
2023-04-14T01:02:43.775Z,20.50
2023-04-14T01:05:12.435Z,21.67
2023-04-14T01:07:40.841Z,25.05
2023-04-14T01:10:11.222Z,23.90
2023-04-14T01:12:56.918Z,23.33
2023-04-14T01:15:34.362Z,24.10
2023-04-14T01:18:31.017Z,25.55
2023-04-14T01:21:16.947Z,20.95
2023-04-14T01:24:06.581Z,19.75
2023-04-14T01:26:34.620Z,20.77
2023-04-14T01:29:34.269Z,20.13
2023-04-14T01:32:10.709Z,20.38
2023-04-14T01:34:46.171Z,18.95
2023-04-14T01:37:36.490Z,23.10
2023-04-14T01:40:11.434Z,20.38
2023-04-14T01:42:47.474Z,22.50
2023-04-14T01:45:23.070Z,23.08
2023-04-14T01:47:52.453Z,22.05
2023-04-14T01:50:22.383Z,21.63
2023-04-14T01:52:54.350Z,23.67
2023-04-14T01:55:26.557Z,22.13
2023-04-14T01:57:58.160Z,20.65
2023-04-14T02:00:26.583Z,26.75
2023-04-14T02:02:55.089Z,24.52
2023-04-14T02:05:23.938Z,24.23
2023-04-14T02:07:53.270Z,24.40
2023-04-14T02:10:21.840Z,24.00
2023-04-14T02:12:52.779Z,25.23
2023-04-14T02:15:22.508Z,24.50
2023-04-14T02:17:52.754Z,25.73
2023-04-14T02:20:21.973Z,23.40
2023-04-14T02:22:49.332Z,25.83
2023-04-14T02:25:17.120Z,28.20
2023-04-14T02:27:56.372Z,25.80
2023-04-14T02:30:30.848Z,25.70
2023-04-14T02:33:04.529Z,26.25
2023-04-14T02:35:40.027Z,25.48
2023-04-14T02:38:29.741Z,25.65
2023-04-14T02:40:59.342Z,25.83
2023-04-14T02:43:32.556Z,30.23
2023-04-14T02:46:05.557Z,28.35
2023-04-14T02:48:36.033Z,25.55
2023-04-14T02:51:06.075Z,29.67
2023-04-14T02:53:34.584Z,29.42
2023-04-14T02:56:19.548Z,25.70
2023-04-14T02:58:49.861Z,27.05
2023-04-14T03:01:19.670Z,29.55
2023-04-14T03:03:50.253Z,27.50
2023-04-14T03:06:18.061Z,28.98
2023-04-14T03:08:47.568Z,27.30
2023-04-14T03:11:18.865Z,26.92
2023-04-14T03:13:48.811Z,24.95
2023-04-14T03:16:20.412Z,28.58
2023-04-14T03:18:52.261Z,24.80
2023-04-14T03:21:21.354Z,24.75
2023-04-14T03:23:53.010Z,25.83
2023-04-14T03:26:23.473Z,28.83
2023-04-14T03:28:53.508Z,33.65
2023-04-14T03:31:29.723Z,27.17
2023-04-14T03:34:00.022Z,27.38
2023-04-14T03:36:36.178Z,26.88
2023-04-14T03:39:06.001Z,23.85
2023-04-14T03:41:39.768Z,26.27
2023-04-14T03:44:15.795Z,27.90
2023-04-14T03:46:46.864Z,27.55
2023-04-14T03:49:17.335Z,26.15
2023-04-14T03:51:51.930Z,25.42
2023-04-14T03:54:23.080Z,27.40
2023-04-14T03:59:21.836Z,26.73
2023-04-14T04:01:50.189Z,26.15
2023-04-14T04:04:18.821Z,26.20
2023-04-14T04:06:46.975Z,31.35
2023-04-14T04:09:15.920Z,28.80
2023-04-14T04:11:46.742Z,29.05
2023-04-14T04:14:16.556Z,26.73
2023-04-14T04:16:49.873Z,29.55
2023-04-14T04:19:23.084Z,27.67
2023-04-14T04:21:53.865Z,26.90
2023-04-14T04:24:23.300Z,26.17
2023-04-14T04:26:54.367Z,28.83
2023-04-14T04:29:23.717Z,33.17
2023-04-14T04:31:54.530Z,27.45
2023-04-14T04:36:54.547Z,28.55
2023-04-14T04:39:21.876Z,25.10
2023-04-14T04:41:52.002Z,32.33
2023-04-14T04:44:20.411Z,27.92
2023-04-14T04:46:56.216Z,29.13
2023-04-14T04:49:26.956Z,30.00
2023-04-14T04:51:57.105Z,26.63
2023-04-14T04:54:24.650Z,27.77
2023-04-14T04:56:52.376Z,25.80
2023-04-14T04:59:19.580Z,29.27
2023-04-14T05:01:47.211Z,29.05
2023-04-14T05:04:14.646Z,29.55
2023-04-14T05:06:42.190Z,27.95
2023-04-14T05:09:09.438Z,28.55
2023-04-14T05:11:36.986Z,26.02
2023-04-14T05:14:04.400Z,26.13
2023-04-14T05:16:32.188Z,28.30
2023-04-14T05:18:59.873Z,25.20
2023-04-14T05:21:27.530Z,29.08
2023-04-14T05:23:54.785Z,25.27
2023-04-14T05:28:53.212Z,19.90
2023-04-14T05:31:20.784Z,22.95
2023-04-14T05:33:47.957Z,26.27
2023-04-14T05:36:15.741Z,20.38
2023-04-14T05:38:43.174Z,23.23
2023-04-14T05:41:12.069Z,23.08
2023-04-14T05:43:39.405Z,24.52
2023-04-14T05:46:07.118Z,23.52
2023-04-14T05:48:36.145Z,23.15
2023-04-14T05:51:03.759Z,24.17
2023-04-14T05:53:31.089Z,27.75
2023-04-14T05:55:59.092Z,26.15
2023-04-14T05:58:26.903Z,23.17
2023-04-14T06:00:54.473Z,19.15
2023-04-14T06:03:21.877Z,27.90
2023-04-14T06:05:50.891Z,19.25
2023-04-14T06:08:19.309Z,17.75
2023-04-14T06:10:47.028Z,16.33
2023-04-14T06:13:15.225Z,17.02
2023-04-14T06:15:42.747Z,18.25
2023-04-14T06:18:09.968Z,18.50
2023-04-14T06:20:37.580Z,22.15
2023-04-14T06:23:05.647Z,19.10
2023-04-14T06:25:34.685Z,23.05
2023-04-14T06:28:04.967Z,25.08
2023-04-14T06:30:32.544Z,18.73
2023-04-14T06:33:04.401Z,17.98
2023-04-14T06:35:33.986Z,19.58
2023-04-14T06:38:02.558Z,17.13
2023-04-14T06:40:30.183Z,21.83
2023-04-14T06:42:57.584Z,19.65
2023-04-14T06:45:25.340Z,18.67
2023-04-14T06:47:52.631Z,19.92
2023-04-14T06:50:20.168Z,18.67
2023-04-14T06:52:47.368Z,18.65
2023-04-14T06:55:15.649Z,22.30
2023-04-14T06:57:42.881Z,18.95
2023-04-14T07:00:11.519Z,17.88
2023-04-14T07:02:39.221Z,19.58
2023-04-14T07:05:07.749Z,20.73
2023-04-14T07:07:36.322Z,18.85
2023-04-14T07:10:04.272Z,22.05
2023-04-14T07:12:31.646Z,22.15
2023-04-14T07:14:59.322Z,22.55
2023-04-14T07:17:26.819Z,22.02
2023-04-14T07:19:54.414Z,20.58
2023-04-14T07:22:21.603Z,21.63
2023-04-14T07:24:49.277Z,25.95
2023-04-14T07:27:16.556Z,24.38
2023-04-14T07:29:44.202Z,28.20
2023-04-14T07:32:13.463Z,31.63
2023-04-14T07:34:43.921Z,27.55
2023-04-14T07:37:11.634Z,35.65
2023-04-14T07:39:39.812Z,27.25
2023-04-14T07:42:07.368Z,29.58
2023-04-14T07:44:35.165Z,29.02
2023-04-14T07:47:02.492Z,31.23
2023-04-14T07:49:30.048Z,30.95
2023-04-14T07:51:57.488Z,32.25
2023-04-14T07:54:25.297Z,32.70
2023-04-14T07:56:52.555Z,30.13
2023-04-14T07:59:20.518Z,33.63
2023-04-14T08:01:48.607Z,32.70
2023-04-14T08:04:16.353Z,27.75
2023-04-14T08:06:43.581Z,27.80
2023-04-14T08:09:12.265Z,25.38
2023-04-14T08:11:39.568Z,22.80
2023-04-14T08:14:07.064Z,27.00
2023-04-14T08:16:36.919Z,21.17
2023-04-14T08:19:05.175Z,25.42
2023-04-14T08:21:33.292Z,24.55
2023-04-14T08:24:01.144Z,21.77
2023-04-14T08:26:28.343Z,22.98
2023-04-14T08:28:56.224Z,21.25
2023-04-14T08:31:25.069Z,24.40
2023-04-14T08:33:53.037Z,23.98
2023-04-14T08:36:21.145Z,24.98
2023-04-14T08:38:48.760Z,21.27
2023-04-14T08:41:20.684Z,21.75
2023-04-14T08:43:48.288Z,20.08
2023-04-14T08:46:16.934Z,18.50
2023-04-14T08:48:47.847Z,21.05
2023-04-14T08:51:33.468Z,21.35
2023-04-14T08:54:04.716Z,18.00
2023-04-14T08:56:37.176Z,15.82
2023-04-14T08:59:11.680Z,18.58
2023-04-14T09:01:39.690Z,16.48
2023-04-14T09:04:08.809Z,18.15
2023-04-14T09:06:36.602Z,19.75
2023-04-14T09:09:08.838Z,17.30
2023-04-14T09:11:36.586Z,18.40
2023-04-14T09:14:04.947Z,15.40
2023-04-14T09:16:33.550Z,15.32
2023-04-14T09:19:06.924Z,14.10
2023-04-14T09:21:51.608Z,16.73
2023-04-14T09:24:31.789Z,12.50
2023-04-14T09:27:07.855Z,12.85
2023-04-14T09:29:37.442Z,13.43
2023-04-14T09:32:06.876Z,11.45
2023-04-14T09:34:34.456Z,14.82
2023-04-14T09:37:09.828Z,13.13
2023-04-14T09:39:49.645Z,11.40
2023-04-14T09:42:18.205Z,11.27
2023-04-14T09:44:59.290Z,14.35
2023-04-14T09:47:26.614Z,12.73
2023-04-14T09:49:59.597Z,10.18
2023-04-14T09:52:56.672Z,10.93
2023-04-14T09:55:24.332Z,10.50
2023-04-14T09:57:51.988Z,12.40
2023-04-14T10:00:22.320Z,12.75
2023-04-14T10:02:56.205Z,12.05
2023-04-14T10:05:33.987Z,12.82
2023-04-14T10:08:06.010Z,12.40
2023-04-14T10:10:34.186Z,12.73
2023-04-14T10:13:02.279Z,11.27
2023-04-14T10:15:29.910Z,10.90
2023-04-14T10:17:57.395Z,11.15
2023-04-14T10:20:25.377Z,12.02
2023-04-14T10:22:54.919Z,12.85
2023-04-14T10:25:24.147Z,11.38
2023-04-14T10:27:51.754Z,12.43
2023-04-14T10:30:19.374Z,14.52
2023-04-14T10:32:48.044Z,16.90
2023-04-14T10:35:17.768Z,12.77
2023-04-14T10:37:52.145Z,13.23
2023-04-14T10:40:21.529Z,13.40
2023-04-14T10:42:54.907Z,15.70
2023-04-14T10:45:23.009Z,15.55
2023-04-14T10:47:51.283Z,12.93
2023-04-14T10:50:24.182Z,16.17
2023-04-14T10:52:56.073Z,17.52
2023-04-14T10:55:25.730Z,16.15
2023-04-14T10:57:54.708Z,18.60
2023-04-14T11:00:27.827Z,19.58
2023-04-14T11:03:03.011Z,15.55
2023-04-14T11:05:34.205Z,18.15
2023-04-14T11:08:11.996Z,15.83
2023-04-14T11:10:40.058Z,20.92
2023-04-14T11:13:12.240Z,21.38
2023-04-14T11:16:03.913Z,25.77
2023-04-14T11:18:32.392Z,23.27
2023-04-14T11:21:06.920Z,23.73
2023-04-14T11:23:35.896Z,24.55
2023-04-14T11:26:06.330Z,21.92
2023-04-14T11:28:36.248Z,23.42
2023-04-14T11:31:06.806Z,23.52
2023-04-14T11:33:37.330Z,24.27
2023-04-14T11:36:07.373Z,46.77
2023-04-14T11:38:36.232Z,42.10
2023-04-14T11:41:04.130Z,30.08
2023-04-14T11:43:31.649Z,26.17
2023-04-14T11:46:03.350Z,30.92
2023-04-14T11:48:30.760Z,23.13
2023-04-14T11:51:03.708Z,30.73
2023-04-14T11:53:32.427Z,27.42
2023-04-14T11:56:00.965Z,25.80
2023-04-14T11:58:29.068Z,23.63
2023-04-14T12:00:59.472Z,25.42
2023-04-14T12:03:31.967Z,21.90
2023-04-14T12:06:01.782Z,21.77
2023-04-14T12:08:33.484Z,21.65
2023-04-14T12:11:13.669Z,22.60
2023-04-14T12:13:42.166Z,19.40
2023-04-14T12:16:14.965Z,17.75
2023-04-14T12:18:43.294Z,17.73
2023-04-14T12:21:15.820Z,22.65
2023-04-14T12:23:48.603Z,20.10
2023-04-14T12:26:16.944Z,17.85
2023-04-14T12:28:45.068Z,19.35
2023-04-14T12:31:12.710Z,18.95
2023-04-14T12:33:40.136Z,21.90
2023-04-14T12:36:11.801Z,23.58
2023-04-14T12:38:39.741Z,22.80
2023-04-14T12:41:07.250Z,22.80
2023-04-14T12:46:08.220Z,22.88
2023-04-14T12:48:48.982Z,20.55
2023-04-14T12:51:18.876Z,19.03
2023-04-14T12:53:49.401Z,14.95
2023-04-14T12:56:23.811Z,18.40
2023-04-14T12:58:51.648Z,17.13
2023-04-14T13:01:20.937Z,16.58
2023-04-14T13:03:55.582Z,16.92
2023-04-14T13:06:25.027Z,16.65
2023-04-14T13:08:53.592Z,21.35
2023-04-14T13:11:23.466Z,20.27
2023-04-14T13:13:52.450Z,19.10
2023-04-14T13:16:20.485Z,20.20
2023-04-14T13:18:48.797Z,19.48
2023-04-14T13:21:17.187Z,17.92
2023-04-14T13:23:44.598Z,19.33
2023-04-14T13:26:13.423Z,18.27
2023-04-14T13:28:40.745Z,18.67
2023-04-14T13:31:13.099Z,21.77
2023-04-14T13:33:40.498Z,20.40
2023-04-14T13:36:08.262Z,19.95
2023-04-14T13:38:35.730Z,20.95
2023-04-14T13:41:03.331Z,24.02
2023-04-14T13:43:30.750Z,19.80
2023-04-14T13:45:59.127Z,21.63
2023-04-14T13:48:27.452Z,25.52
2023-04-14T13:50:55.998Z,27.08
2023-04-14T13:53:23.367Z,24.13
2023-04-14T13:55:51.362Z,23.02
2023-04-14T13:58:18.617Z,24.05
2023-04-14T14:00:46.523Z,23.17
2023-04-14T14:03:13.884Z,23.58
2023-04-14T14:05:41.480Z,25.27
2023-04-14T14:08:08.805Z,22.88
2023-04-14T14:10:36.904Z,25.02
2023-04-14T14:13:04.922Z,21.95
2023-04-14T14:15:32.583Z,19.65
2023-04-14T14:17:59.984Z,21.08
2023-04-14T14:20:27.716Z,23.80
2023-04-14T14:22:54.995Z,24.15
2023-04-14T14:25:22.566Z,24.48
2023-04-14T14:27:51.963Z,18.45
2023-04-14T14:30:20.275Z,23.77
2023-04-14T14:32:47.698Z,23.92
2023-04-14T14:35:16.642Z,25.92
2023-04-14T14:37:45.799Z,23.25
2023-04-14T14:40:13.365Z,24.05
2023-04-14T14:42:40.562Z,22.45
2023-04-14T14:45:09.352Z,22.98
2023-04-14T14:47:37.333Z,21.17
2023-04-14T14:50:08.514Z,21.15
2023-04-14T14:52:36.510Z,25.70
2023-04-14T14:55:04.783Z,26.17
2023-04-14T14:57:32.337Z,21.58
2023-04-14T15:00:00.043Z,21.55
2023-04-14T15:02:27.617Z,21.08
2023-04-14T15:04:55.672Z,19.92
2023-04-14T15:07:23.059Z,21.02
2023-04-14T15:09:51.146Z,21.15
2023-04-14T15:12:19.359Z,19.58
2023-04-14T15:14:47.101Z,21.55
2023-04-14T15:17:14.626Z,22.55
2023-04-14T15:19:42.985Z,18.63
2023-04-14T15:22:10.612Z,19.70
2023-04-14T15:24:38.426Z,16.35
2023-04-14T15:27:06.220Z,19.88
2023-04-14T15:29:33.982Z,15.45
2023-04-14T15:32:01.662Z,19.27
2023-04-14T15:34:29.387Z,21.63
2023-04-14T15:36:56.975Z,19.02
2023-04-14T15:39:24.686Z,18.27
2023-04-14T15:41:52.187Z,17.48
2023-04-14T15:44:19.858Z,19.77
2023-04-14T15:46:47.165Z,18.98
2023-04-14T15:49:14.687Z,18.60
2023-04-14T15:51:42.483Z,20.15
2023-04-14T15:54:10.138Z,18.92
2023-04-14T15:56:37.380Z,16.50
2023-04-14T15:59:05.123Z,20.65
2023-04-14T16:01:32.436Z,17.83
2023-04-14T16:04:00.989Z,18.17
2023-04-14T16:06:28.675Z,16.75
2023-04-14T16:08:56.603Z,17.13
2023-04-14T16:11:24.212Z,20.85
2023-04-14T16:13:52.840Z,20.80
2023-04-14T16:16:20.194Z,19.20
2023-04-14T16:18:48.770Z,20.00
2023-04-14T16:21:16.467Z,20.70
2023-04-14T16:23:44.129Z,18.55
2023-04-14T16:26:12.910Z,16.20
2023-04-14T16:28:40.513Z,17.88
2023-04-14T16:31:08.340Z,18.67
2023-04-14T16:33:36.113Z,15.70
2023-04-14T16:36:07.802Z,18.65
2023-04-14T16:38:35.522Z,14.38
2023-04-14T16:41:03.468Z,15.52
2023-04-14T16:43:31.488Z,15.15
2023-04-14T16:46:03.239Z,18.20
2023-04-14T16:48:31.358Z,18.23
2023-04-14T16:51:06.832Z,16.23
2023-04-14T16:53:36.532Z,18.23
2023-04-14T16:56:05.650Z,20.05
2023-04-14T16:58:33.508Z,19.75
2023-04-14T17:01:01.390Z,18.92
2023-04-14T17:03:29.303Z,16.92
2023-04-14T17:05:56.772Z,19.15
2023-04-14T17:08:24.499Z,20.95
2023-04-14T17:10:51.829Z,19.88
2023-04-14T17:13:19.630Z,20.63
2023-04-14T17:15:55.681Z,21.98
2023-04-14T17:18:30.158Z,21.15
2023-04-14T17:20:57.372Z,22.02
2023-04-14T17:23:24.909Z,23.08
2023-04-14T17:25:53.299Z,22.70
2023-04-14T17:28:22.824Z,21.60
2023-04-14T17:30:51.125Z,26.88
2023-04-14T17:33:20.133Z,24.45
2023-04-14T17:35:47.686Z,22.38
2023-04-14T17:38:15.351Z,24.90
2023-04-14T17:40:42.767Z,20.05
2023-04-14T17:43:10.494Z,19.95
2023-04-14T17:45:40.176Z,17.63
2023-04-14T17:48:08.692Z,21.15
2023-04-14T17:50:36.162Z,19.85
2023-04-14T17:53:03.778Z,20.55
2023-04-14T17:55:31.338Z,23.88
2023-04-14T17:58:00.284Z,21.25
2023-04-14T18:00:29.357Z,21.20
2023-04-14T18:02:56.959Z,23.45
2023-04-14T18:05:24.293Z,21.73
2023-04-14T18:07:51.829Z,19.25
2023-04-14T18:10:19.438Z,20.05
2023-04-14T18:12:47.797Z,19.95
2023-04-14T18:15:17.827Z,20.38
2023-04-14T18:17:45.577Z,20.40
2023-04-14T18:20:13.774Z,18.55
2023-04-14T18:22:41.615Z,20.23
2023-04-14T18:25:09.761Z,26.45
2023-04-14T18:30:08.504Z,22.30
2023-04-14T18:32:36.520Z,18.90
2023-04-14T18:35:04.118Z,20.75
2023-04-14T18:37:31.758Z,19.58
2023-04-14T18:40:00.025Z,26.48
2023-04-14T18:42:30.244Z,28.52
2023-04-14T18:44:58.441Z,20.27
2023-04-14T18:47:26.301Z,23.20
2023-04-14T18:49:53.873Z,25.30
2023-04-14T18:52:22.222Z,28.58
2023-04-14T18:54:49.636Z,26.52
2023-04-14T18:57:17.938Z,25.10
2023-04-14T18:59:45.833Z,24.20
2023-04-14T19:02:13.961Z,19.38
2023-04-14T19:04:41.376Z,18.63
2023-04-14T19:07:09.128Z,17.58
2023-04-14T19:09:37.737Z,17.23
2023-04-14T19:12:06.836Z,17.75
2023-04-14T19:14:36.507Z,13.65
2023-04-14T19:17:04.742Z,12.65
2023-04-14T19:19:35.705Z,14.65
2023-04-14T19:22:03.840Z,13.43
2023-04-14T19:24:31.562Z,14.13
2023-04-14T19:26:59.318Z,13.25
2023-04-14T19:29:27.180Z,13.63
2023-04-14T19:31:54.794Z,11.68
2023-04-14T19:34:22.070Z,14.30
2023-04-14T19:36:49.658Z,15.68
2023-04-14T19:39:16.928Z,13.02
2023-04-14T19:41:44.541Z,11.80
2023-04-14T19:44:12.715Z,11.55
2023-04-14T19:46:42.309Z,12.77
2023-04-14T19:49:11.424Z,11.10
2023-04-14T19:51:39.119Z,10.75
2023-04-14T19:54:07.367Z,11.27
2023-04-14T19:56:35.134Z,12.45
2023-04-14T19:59:02.895Z,13.02
2023-04-14T20:01:31.518Z,13.77
2023-04-14T20:04:05.503Z,14.48
2023-04-14T20:06:40.349Z,14.45
2023-04-14T20:09:07.772Z,15.05
2023-04-14T20:11:35.366Z,14.93
2023-04-14T20:14:02.656Z,12.20
2023-04-14T20:16:30.676Z,15.52
2023-04-14T20:18:58.209Z,15.50
2023-04-14T20:21:25.938Z,15.95
2023-04-14T20:23:53.230Z,15.15
2023-04-14T20:26:21.589Z,14.10
2023-04-14T20:28:49.645Z,16.73
2023-04-14T20:31:17.272Z,14.60
2023-04-14T20:33:44.646Z,17.20
2023-04-14T20:36:12.593Z,19.15
2023-04-14T20:38:40.479Z,21.10
2023-04-14T20:41:08.029Z,18.15
2023-04-14T20:43:35.478Z,15.18
2023-04-14T20:46:04.034Z,17.38
2023-04-14T20:48:32.438Z,18.30
2023-04-14T20:51:01.453Z,17.02
2023-04-14T20:53:30.198Z,22.83
2023-04-14T20:55:57.873Z,17.98
2023-04-14T20:58:25.276Z,20.23
2023-04-14T21:00:52.975Z,19.98
2023-04-14T21:03:20.486Z,21.73
2023-04-14T21:05:48.272Z,19.33
2023-04-14T21:08:15.665Z,20.80
2023-04-14T21:11:14.893Z,17.02
2023-04-14T21:15:11.352Z,18.02
2023-04-14T21:16:18.429Z,18.55
2023-04-14T21:18:46.167Z,18.42
2023-04-14T21:21:14.023Z,16.67
2023-04-14T21:23:41.533Z,18.63
2023-04-14T21:26:09.234Z,19.00
2023-04-14T21:28:37.055Z,20.27
2023-04-14T21:31:04.963Z,20.30
2023-04-14T21:33:32.518Z,22.58
2023-04-14T21:36:02.834Z,17.75
2023-04-14T21:38:30.239Z,18.23
2023-04-14T21:40:57.945Z,18.27
2023-04-14T21:43:25.215Z,21.52
2023-04-14T21:45:53.699Z,20.17
2023-04-14T21:48:21.013Z,18.80
2023-04-14T21:50:49.361Z,21.50
2023-04-14T21:53:16.776Z,20.90
2023-04-14T21:55:44.404Z,20.65
2023-04-14T21:58:11.676Z,28.70
2023-04-14T22:00:40.991Z,21.92
2023-04-14T22:03:08.532Z,26.10
2023-04-14T22:05:36.374Z,21.17
2023-04-14T22:08:03.826Z,23.88
2023-04-14T22:10:34.220Z,19.73
2023-04-14T22:13:01.721Z,20.52
2023-04-14T22:15:29.582Z,20.73
2023-04-14T22:17:56.900Z,22.08
2023-04-14T22:20:26.561Z,20.25
2023-04-14T22:22:53.830Z,21.48
2023-04-14T22:25:21.461Z,23.23
2023-04-14T22:27:48.793Z,22.75
2023-04-14T22:30:16.584Z,19.08
2023-04-14T22:32:43.966Z,19.45
2023-04-14T22:35:11.623Z,21.25
2023-04-14T22:37:38.957Z,22.17
2023-04-14T22:40:07.528Z,20.60
2023-04-14T22:42:34.895Z,21.65
2023-04-14T22:45:02.467Z,20.85
2023-04-14T22:47:29.874Z,22.13
2023-04-14T22:49:57.456Z,24.60
2023-04-14T22:52:26.740Z,27.30
2023-04-14T22:54:54.534Z,28.00
2023-04-14T22:57:21.965Z,29.20
2023-04-14T22:59:49.646Z,27.35
2023-04-14T23:02:17.047Z,25.98
2023-04-14T23:04:45.012Z,36.58
2023-04-14T23:07:13.654Z,30.25
2023-04-14T23:09:41.359Z,31.60
2023-04-14T23:12:08.699Z,35.67
2023-04-14T23:14:36.752Z,32.35
2023-04-14T23:17:04.415Z,28.92
2023-04-14T23:19:33.776Z,30.60
2023-04-14T23:22:02.426Z,27.77
2023-04-14T23:24:30.028Z,28.27
2023-04-14T23:26:57.735Z,28.20
2023-04-14T23:29:25.408Z,28.65
2023-04-14T23:31:52.785Z,26.38
2023-04-14T23:34:20.661Z,21.85
2023-04-14T23:36:48.280Z,24.88
2023-04-14T23:39:15.884Z,21.55
2023-04-14T23:41:43.141Z,23.75
2023-04-14T23:44:10.881Z,22.15
2023-04-14T23:46:39.445Z,23.10
2023-04-14T23:49:24.395Z,22.30
2023-04-14T23:51:54.668Z,20.58
2023-04-14T23:54:22.204Z,20.60
2023-04-14T23:56:49.413Z,20.45
2023-04-14T23:59:17.173Z,17.85
